UAAALTBS

Guest
Details From UAAA - Almaty
To LTBS - Dalaman
Flight Number -
Tags Generated
Created
Modified
Stats Distance 2,224 nm / 4,118 km
Max Altitude 0 ft / 0 m
Waypoints 4
Social Downloads 0
Likes 0
Share VATSIM

Download

Looking for another format? Having issues loading an existing format? Contact us
Advertisement - Login to hide

Notes

Generated

Route

UAAA GOKCE DALNB LTBS

ID Type Via Altitude (ft/m) Position (lat/lon) Dist (leg/tot) Name
O UAAA APT - 0 / 0 43.34096 / 77.01807 - / 0 nm
GOKCE FIX - 0 / 0 38.16333 / 33.09167 1999 / 1999 nm
DALNB FIX - 0 / 0 36.68955 / 28.78193 223 / 2222 nm
O LTBS APT - 0 / 0 36.70016 / 28.78809 0 / 2223 nm

Altitude Profile

Advertisement - Login to hide

Weather


0- 5 10 15 20 25 30 35+ Temperature / °C

Clouds and Precipitation
Forecast for 2018-12-16 12:00 UTC. Updated 5 hours ago

Ground ~20,000 ft ~40,000 ft Winds

UAAA

Details ICAO UAAA (ALA)
Name Almaty Intl
Region Kazakhstan and Kyrgyzstan
Timezone Asia/Almaty (UTC+6.0)
Stats Elevation 2,233 ft / 681 m (AMSL)
Location 43.355500° 77.043900°
Runways 2
Magnetic Variation 5.208° E

METAR

UAAA 161430Z 14004MPS 090V160 5000 -SHRASN BR BKN033CB OVC100 02/00 Q1033 R88/6/0147 NOSIG

Decode

TAF

TAF TAF UAAA 161100Z 1612/1712 31005MPS 2000 BR FU BKN010CB OVC100 TXM01/1706Z TNM07/1701Z TEMPO 1612/1616 22008MPS 1000 SHRASN BKN005 OVC010CB TEMPO 1616/1620 16005MPS 0400 SN FZFG BKN002 TEMPO 1620/1702 0200 FZFG VV001 TEMPO 1708/1712 1000 SHSN BKN010CB OVC100

Decode

Departure Runways

ID Width Length Bearing (true/mag) Surface Threshold Overrun Markings Lighting
05L 200 ft / 61 m 14,831 ft / 4,521 m 55.72° / 50.51° CONCRETE 0 ft / 0 m 0 ft / 0 m PREC-APP CENTERLINE EDGE THRESHOLD ALSF-I TDZ REIL-OMNI
05R 148 ft / 45 m 14,431 ft / 4,398 m 55.71° / 50.51° ASPHALT 0 ft / 0 m 0 ft / 0 m PREC-APP CENTERLINE EDGE THRESHOLD ALSF-I TDZ REIL-OMNI
23L 148 ft / 45 m 14,431 ft / 4,398 m 235.75° / 230.54° ASPHALT 0 ft / 0 m 0 ft / 0 m PREC-APP CENTERLINE EDGE THRESHOLD ALSF-II TDZ REIL-OMNI
23R 200 ft / 61 m 14,831 ft / 4,521 m 235.75° / 230.54° CONCRETE 0 ft / 0 m 0 ft / 0 m PREC-APP CENTERLINE EDGE THRESHOLD ALSF-II TDZ REIL-OMNI

LTBS

Details ICAO LTBS (DLM)
Name DALAMAN
Region Turkey
Timezone Europe/Istanbul (UTC+3.0)
Stats Elevation 20 ft / 6 m (AMSL)
Location 36.713200° 28.792500°
Runways 1
Magnetic Variation 4.974° E

METAR

LTBS 161420Z 12009KT 9999 SCT025 BKN090 17/10 Q1012 NOSIG

Decode

TAF

TAF AMD LTBS 161009Z 1610/1706 17009KT 9999 -SHRA SCT025 BKN090 PROB40 TEMPO 1615/1619 4000 TSRA SCT015CB BKN025 TEMPO 1619/1623 4000 TSRA SCT015CB BKN025

Decode

Destination Runways

ID Width Length Bearing (true/mag) Surface Threshold Overrun Markings Lighting
01 148 ft / 45 m 9,851 ft / 3,003 m 15.24° / 10.27° CONCRETE 0 ft / 0 m 197 ft / 60 m APP EDGE THRESHOLD ALSF-I
19 148 ft / 45 m 9,851 ft / 3,003 m 195.25° / 190.27° CONCRETE 0 ft / 0 m 197 ft / 60 m APP EDGE THRESHOLD ALSF-I

Popular Alternatives